sensor_id;sensor_type;location;lat;lon;timestamp;pressure;altitude;pressure_sealevel;temperature;humidity
12468;BME280;57850;52.922;6.256;2023-02-21T00:00:03;101944.28;;;12.02;nan
12468;BME280;57850;52.922;6.256;2023-02-21T00:02:48;101942.09;;;12.19;nan
12468;BME280;57850;52.922;6.256;2023-02-21T00:05:32;101951.50;;;11.91;nan
12468;BME280;57850;52.922;6.256;2023-02-21T00:08:16;101950.25;;;12.07;nan
12468;BME280;57850;52.922;6.256;2023-02-21T00:11:00;101949.09;;;12.18;nan
12468;BME280;57850;52.922;6.256;2023-02-21T00:13:46;101937.47;;;12.30;nan
12468;BME280;57850;52.922;6.256;2023-02-21T00:16:30;101957.06;;;12.14;nan
12468;BME280;57850;52.922;6.256;2023-02-21T00:19:14;101943.72;;;11.88;nan
12468;BME280;57850;52.922;6.256;2023-02-21T00:21:58;101927.88;;;12.29;nan
12468;BME280;57850;52.922;6.256;2023-02-21T00:24:42;101943.91;;;12.17;nan
12468;BME280;57850;52.922;6.256;2023-02-21T00:27:26;101949.72;;;11.93;nan
12468;BME280;57850;52.922;6.256;2023-02-21T00:30:13;101928.13;;;12.20;nan
12468;BME280;57850;52.922;6.256;2023-02-21T00:32:57;101924.06;;;12.41;nan
12468;BME280;57850;52.922;6.256;2023-02-21T00:35:41;101940.38;;;12.18;nan
12468;BME280;57850;52.922;6.256;2023-02-21T00:38:25;101946.00;;;12.03;nan
12468;BME280;57850;52.922;6.256;2023-02-21T00:41:16;101950.41;;;12.01;nan
12468;BME280;57850;52.922;6.256;2023-02-21T00:44:00;101949.31;;;12.09;nan
12468;BME280;57850;52.922;6.256;2023-02-21T00:46:45;101942.53;;;12.02;nan
12468;BME280;57850;52.922;6.256;2023-02-21T00:49:29;101955.47;;;12.08;nan
12468;BME280;57850;52.922;6.256;2023-02-21T00:52:13;101933.88;;;11.99;nan
12468;BME280;57850;52.922;6.256;2023-02-21T00:54:57;101919.78;;;12.06;nan
12468;BME280;57850;52.922;6.256;2023-02-21T00:57:41;101911.88;;;12.07;nan
12468;BME280;57850;52.922;6.256;2023-02-21T01:00:26;101927.53;;;12.09;nan
12468;BME280;57850;52.922;6.256;2023-02-21T01:03:12;101914.00;;;12.25;nan
12468;BME280;57850;52.922;6.256;2023-02-21T01:05:56;101929.94;;;12.18;nan
12468;BME280;57850;52.922;6.256;2023-02-21T01:08:41;101939.28;;;11.91;nan
12468;BME280;57850;52.922;6.256;2023-02-21T01:11:25;101921.53;;;12.05;nan
12468;BME280;57850;52.922;6.256;2023-02-21T01:14:10;101918.78;;;12.10;nan
12468;BME280;57850;52.922;6.256;2023-02-21T01:16:54;101928.66;;;11.99;nan
12468;BME280;57850;52.922;6.256;2023-02-21T01:19:40;101922.66;;;11.94;nan
12468;BME280;57850;52.922;6.256;2023-02-21T01:22:25;101907.44;;;12.09;nan
12468;BME280;57850;52.922;6.256;2023-02-21T01:25:10;101910.28;;;12.00;nan
12468;BME280;57850;52.922;6.256;2023-02-21T01:27:54;101905.66;;;12.11;nan
12468;BME280;57850;52.922;6.256;2023-02-21T01:30:39;101923.06;;;12.12;nan
12468;BME280;57850;52.922;6.256;2023-02-21T01:33:23;101927.16;;;11.89;nan
12468;BME280;57850;52.922;6.256;2023-02-21T01:36:09;101909.38;;;12.03;nan
12468;BME280;57850;52.922;6.256;2023-02-21T01:38:54;101899.19;;;11.92;nan
12468;BME280;57850;52.922;6.256;2023-02-21T01:41:38;101892.38;;;12.19;nan
12468;BME280;57850;52.922;6.256;2023-02-21T01:44:35;101899.44;;;12.15;nan
12468;BME280;57850;52.922;6.256;2023-02-21T01:47:20;101909.56;;;12.29;nan
12468;BME280;57850;52.922;6.256;2023-02-21T01:50:10;101919.22;;;12.27;nan
12468;BME280;57850;52.922;6.256;2023-02-21T01:52:56;101917.34;;;11.98;nan
12468;BME280;57850;52.922;6.256;2023-02-21T01:55:41;101900.53;;;12.07;nan
12468;BME280;57850;52.922;6.256;2023-02-21T01:58:28;101902.06;;;12.15;nan
12468;BME280;57850;52.922;6.256;2023-02-21T02:01:20;101899.22;;;12.24;nan
12468;BME280;57850;52.922;6.256;2023-02-21T02:04:06;101886.97;;;12.25;nan
12468;BME280;57850;52.922;6.256;2023-02-21T02:06:50;101905.19;;;12.29;nan
12468;BME280;57850;52.922;6.256;2023-02-21T02:09:36;101898.91;;;12.37;nan
12468;BME280;57850;52.922;6.256;2023-02-21T02:12:52;101903.81;;;12.49;nan
12468;BME280;57850;52.922;6.256;2023-02-21T02:15:41;101921.59;;;12.36;nan
12468;BME280;57850;52.922;6.256;2023-02-21T02:18:33;101911.63;;;12.16;nan
12468;BME280;57850;52.922;6.256;2023-02-21T02:24:40;101929.09;;;12.16;nan
12468;BME280;57850;52.922;6.256;2023-02-21T02:27:19;101920.75;;;12.02;nan
12468;BME280;57850;52.922;6.256;2023-02-21T02:35:51;101930.19;;;12.07;nan
12468;BME280;57850;52.922;6.256;2023-02-21T02:38:25;101923.44;;;11.99;nan
12468;BME280;57850;52.922;6.256;2023-02-21T02:40:58;101932.53;;;11.82;nan
12468;BME280;57850;52.922;6.256;2023-02-21T02:43:29;101920.09;;;11.92;nan
12468;BME280;57850;52.922;6.256;2023-02-21T02:45:59;101920.34;;;12.17;nan
12468;BME280;57850;52.922;6.256;2023-02-21T02:48:32;101943.19;;;12.10;nan
12468;BME280;57850;52.922;6.256;2023-02-21T02:51:06;101940.28;;;11.87;nan
12468;BME280;57850;52.922;6.256;2023-02-21T02:53:33;101932.44;;;11.87;nan
12468;BME280;57850;52.922;6.256;2023-02-21T02:56:02;101925.81;;;12.08;nan
12468;BME280;57850;52.922;6.256;2023-02-21T02:58:33;101932.94;;;12.01;nan
12468;BME280;57850;52.922;6.256;2023-02-21T03:01:16;101948.16;;;11.86;nan
12468;BME280;57850;52.922;6.256;2023-02-21T03:03:58;101942.34;;;11.74;nan
12468;BME280;57850;52.922;6.256;2023-02-21T03:06:39;101936.50;;;11.99;nan
12468;BME280;57850;52.922;6.256;2023-02-21T03:09:13;101939.78;;;12.07;nan
12468;BME280;57850;52.922;6.256;2023-02-21T03:11:50;101939.22;;;11.94;nan
12468;BME280;57850;52.922;6.256;2023-02-21T03:14:24;101935.56;;;12.01;nan
12468;BME280;57850;52.922;6.256;2023-02-21T03:16:54;101949.84;;;12.22;nan
12468;BME280;57850;52.922;6.256;2023-02-21T03:19:24;101946.69;;;12.09;nan
12468;BME280;57850;52.922;6.256;2023-02-21T03:21:55;101949.25;;;11.77;nan
12468;BME280;57850;52.922;6.256;2023-02-21T03:24:24;101943.88;;;11.83;nan
12468;BME280;57850;52.922;6.256;2023-02-21T03:26:54;101926.59;;;12.11;nan
12468;BME280;57850;52.922;6.256;2023-02-21T03:29:22;101947.00;;;11.97;nan
12468;BME280;57850;52.922;6.256;2023-02-21T03:31:54;101952.28;;;11.94;nan
12468;BME280;57850;52.922;6.256;2023-02-21T03:34:23;101932.47;;;12.19;nan
12468;BME280;57850;52.922;6.256;2023-02-21T03:36:50;101948.00;;;11.93;nan
12468;BME280;57850;52.922;6.256;2023-02-21T03:39:18;101949.59;;;11.99;nan
12468;BME280;57850;52.922;6.256;2023-02-21T03:41:44;101944.38;;;12.32;nan
12468;BME280;57850;52.922;6.256;2023-02-21T03:44:11;101954.38;;;12.15;nan
12468;BME280;57850;52.922;6.256;2023-02-21T03:46:37;101966.56;;;12.18;nan
12468;BME280;57850;52.922;6.256;2023-02-21T03:49:04;101958.41;;;12.28;nan
12468;BME280;57850;52.922;6.256;2023-02-21T03:51:31;101954.19;;;12.24;nan
12468;BME280;57850;52.922;6.256;2023-02-21T03:53:57;101954.34;;;12.18;nan
12468;BME280;57850;52.922;6.256;2023-02-21T03:56:25;101957.78;;;12.19;nan
12468;BME280;57850;52.922;6.256;2023-02-21T03:58:51;101960.00;;;12.35;nan
12468;BME280;57850;52.922;6.256;2023-02-21T04:01:18;101958.19;;;12.38;nan
12468;BME280;57850;52.922;6.256;2023-02-21T04:03:45;101958.41;;;12.28;nan
12468;BME280;57850;52.922;6.256;2023-02-21T04:06:11;101956.25;;;12.46;nan
12468;BME280;57850;52.922;6.256;2023-02-21T04:08:38;101960.78;;;12.38;nan
12468;BME280;57850;52.922;6.256;2023-02-21T04:11:04;101961.59;;;12.41;nan
12468;BME280;57850;52.922;6.256;2023-02-21T04:13:32;101978.97;;;12.44;nan
12468;BME280;57850;52.922;6.256;2023-02-21T04:15:59;101971.06;;;12.47;nan
12468;BME280;57850;52.922;6.256;2023-02-21T04:18:25;101963.41;;;12.38;nan
12468;BME280;57850;52.922;6.256;2023-02-21T04:20:52;101977.22;;;12.44;nan
12468;BME280;57850;52.922;6.256;2023-02-21T04:23:19;101971.06;;;12.47;nan
12468;BME280;57850;52.922;6.256;2023-02-21T04:25:46;101971.19;;;12.41;nan
12468;BME280;57850;52.922;6.256;2023-02-21T04:28:13;101972.75;;;12.48;nan
12468;BME280;57850;52.922;6.256;2023-02-21T04:30:41;101960.50;;;12.50;nan
12468;BME280;57850;52.922;6.256;2023-02-21T04:33:07;101965.34;;;12.65;nan
12468;BME280;57850;52.922;6.256;2023-02-21T04:35:34;101969.16;;;12.52;nan
12468;BME280;57850;52.922;6.256;2023-02-21T04:38:01;101959.72;;;12.46;nan
12468;BME280;57850;52.922;6.256;2023-02-21T04:40:28;101967.03;;;12.33;nan
12468;BME280;57850;52.922;6.256;2023-02-21T04:42:54;101957.13;;;12.45;nan
12468;BME280;57850;52.922;6.256;2023-02-21T04:45:20;101953.53;;;12.49;nan
12468;BME280;57850;52.922;6.256;2023-02-21T04:47:48;101969.66;;;12.33;nan
12468;BME280;57850;52.922;6.256;2023-02-21T04:50:15;101967.22;;;12.26;nan
12468;BME280;57850;52.922;6.256;2023-02-21T04:52:42;101970.47;;;12.35;nan
12468;BME280;57850;52.922;6.256;2023-02-21T04:55:08;101961.75;;;12.35;nan
12468;BME280;57850;52.922;6.256;2023-02-21T04:57:35;101957.25;;;12.40;nan
12468;BME280;57850;52.922;6.256;2023-02-21T05:00:03;101955.22;;;12.51;nan
12468;BME280;57850;52.922;6.256;2023-02-21T05:02:31;101955.03;;;12.59;nan
12468;BME280;57850;52.922;6.256;2023-02-21T05:04:59;101967.91;;;12.32;nan
12468;BME280;57850;52.922;6.256;2023-02-21T05:07:26;101951.97;;;12.42;nan
12468;BME280;57850;52.922;6.256;2023-02-21T05:09:52;101962.69;;;12.32;nan
12468;BME280;57850;52.922;6.256;2023-02-21T05:12:19;101963.00;;;12.20;nan
12468;BME280;57850;52.922;6.256;2023-02-21T05:14:45;101969.66;;;12.33;nan
12468;BME280;57850;52.922;6.256;2023-02-21T05:17:12;101955.81;;;12.28;nan
12468;BME280;57850;52.922;6.256;2023-02-21T05:19:39;101949.19;;;12.48;nan
12468;BME280;57850;52.922;6.256;2023-02-21T05:22:07;101951.56;;;12.57;nan
12468;BME280;57850;52.922;6.256;2023-02-21T05:24:40;101959.25;;;12.63;nan
12468;BME280;57850;52.922;6.256;2023-02-21T05:27:11;101968.13;;;12.57;nan
12468;BME280;57850;52.922;6.256;2023-02-21T05:29:40;101979.97;;;12.38;nan
12468;BME280;57850;52.922;6.256;2023-02-21T05:32:06;101962.84;;;12.26;nan
12468;BME280;57850;52.922;6.256;2023-02-21T05:34:33;101955.38;;;12.45;nan
12468;BME280;57850;52.922;6.256;2023-02-21T05:37:01;101971.25;;;12.38;nan
12468;BME280;57850;52.922;6.256;2023-02-21T05:39:29;101954.94;;;12.62;nan
12468;BME280;57850;52.922;6.256;2023-02-21T05:41:55;101958.81;;;12.47;nan
12468;BME280;57850;52.922;6.256;2023-02-21T05:44:22;101967.75;;;12.39;nan
12468;BME280;57850;52.922;6.256;2023-02-21T05:46:48;101973.19;;;12.31;nan
12468;BME280;57850;52.922;6.256;2023-02-21T05:49:15;101955.84;;;12.61;nan
12468;BME280;57850;52.922;6.256;2023-02-21T05:51:42;101969.50;;;12.38;nan
12468;BME280;57850;52.922;6.256;2023-02-21T05:54:13;101970.06;;;12.15;nan
12468;BME280;57850;52.922;6.256;2023-02-21T05:56:42;101957.69;;;12.23;nan
12468;BME280;57850;52.922;6.256;2023-02-21T05:59:09;101957.91;;;12.48;nan
12468;BME280;57850;52.922;6.256;2023-02-21T06:01:36;101958.41;;;12.28;nan
12468;BME280;57850;52.922;6.256;2023-02-21T06:04:04;101955.47;;;12.41;nan
12468;BME280;57850;52.922;6.256;2023-02-21T06:06:32;101967.03;;;12.33;nan
12468;BME280;57850;52.922;6.256;2023-02-21T06:08:58;101964.28;;;12.38;nan
12468;BME280;57850;52.922;6.256;2023-02-21T06:11:27;101960.03;;;12.34;nan
12468;BME280;57850;52.922;6.256;2023-02-21T06:13:57;101957.56;;;12.28;nan
12468;BME280;57850;52.922;6.256;2023-02-21T06:16:24;101965.38;;;12.29;nan
12468;BME280;57850;52.922;6.256;2023-02-21T06:18:54;101966.31;;;12.27;nan
12468;BME280;57850;52.922;6.256;2023-02-21T06:21:21;101967.25;;;12.24;nan
12468;BME280;57850;52.922;6.256;2023-02-21T06:23:48;101964.09;;;12.12;nan
12468;BME280;57850;52.922;6.256;2023-02-21T06:26:16;101958.06;;;12.42;nan
12468;BME280;57850;52.922;6.256;2023-02-21T06:28:42;101963.53;;;12.67;nan
12468;BME280;57850;52.922;6.256;2023-02-21T06:31:10;101977.34;;;12.40;nan
12468;BME280;57850;52.922;6.256;2023-02-21T06:33:37;101973.47;;;12.20;nan
12468;BME280;57850;52.922;6.256;2023-02-21T06:36:04;101972.44;;;12.26;nan
12468;BME280;57850;52.922;6.256;2023-02-21T06:38:32;101978.50;;;12.28;nan
12468;BME280;57850;52.922;6.256;2023-02-21T06:40:58;101982.28;;;12.50;nan
12468;BME280;57850;52.922;6.256;2023-02-21T06:43:25;101974.66;;;12.43;nan
12468;BME280;57850;52.922;6.256;2023-02-21T06:45:52;101979.03;;;12.41;nan
12468;BME280;57850;52.922;6.256;2023-02-21T06:48:20;101979.91;;;12.41;nan
12468;BME280;57850;52.922;6.256;2023-02-21T06:50:46;101969.66;;;12.33;nan
12468;BME280;57850;52.922;6.256;2023-02-21T06:53:13;101975.19;;;12.21;nan
12468;BME280;57850;52.922;6.256;2023-02-21T06:55:39;101965.63;;;12.20;nan
12468;BME280;57850;52.922;6.256;2023-02-21T06:58:06;101954.25;;;12.21;nan
12468;BME280;57850;52.922;6.256;2023-02-21T07:00:32;101967.28;;;12.23;nan
12468;BME280;57850;52.922;6.256;2023-02-21T07:03:00;101971.56;;;12.25;nan
12468;BME280;57850;52.922;6.256;2023-02-21T07:05:28;101962.25;;;12.49;nan
12468;BME280;57850;52.922;6.256;2023-02-21T07:07:58;101964.09;;;12.46;nan
12468;BME280;57850;52.922;6.256;2023-02-21T07:10:25;101975.97;;;12.59;nan
12468;BME280;57850;52.922;6.256;2023-02-21T07:12:52;101987.03;;;12.34;nan
12468;BME280;57850;52.922;6.256;2023-02-21T07:15:18;101977.72;;;12.24;nan
12468;BME280;57850;52.922;6.256;2023-02-21T07:17:45;101973.47;;;12.54;nan
12468;BME280;57850;52.922;6.256;2023-02-21T07:20:11;101972.69;;;12.51;nan
12468;BME280;57850;52.922;6.256;2023-02-21T07:22:39;101985.06;;;12.44;nan
12468;BME280;57850;52.922;6.256;2023-02-21T07:25:06;101980.75;;;12.42;nan
12468;BME280;57850;52.922;6.256;2023-02-21T07:27:32;101990.59;;;12.33;nan
12468;BME280;57850;52.922;6.256;2023-02-21T07:30:00;101984.03;;;12.16;nan
12468;BME280;57850;52.922;6.256;2023-02-21T07:32:26;101976.50;;;12.38;nan
12468;BME280;57850;52.922;6.256;2023-02-21T07:34:53;101972.06;;;12.41;nan
12468;BME280;57850;52.922;6.256;2023-02-21T07:37:19;101965.25;;;12.68;nan
12468;BME280;57850;52.922;6.256;2023-02-21T07:39:47;101978.38;;;12.66;nan
12468;BME280;57850;52.922;6.256;2023-02-21T07:42:14;101974.00;;;12.67;nan
12468;BME280;57850;52.922;6.256;2023-02-21T07:44:40;101992.47;;;12.62;nan
12468;BME280;57850;52.922;6.256;2023-02-21T07:47:07;101981.00;;;12.66;nan
12468;BME280;57850;52.922;6.256;2023-02-21T07:49:36;101978.00;;;12.80;nan
12468;BME280;57850;52.922;6.256;2023-02-21T07:52:03;101990.06;;;12.53;nan
12468;BME280;57850;52.922;6.256;2023-02-21T07:54:30;101989.72;;;12.67;nan
12468;BME280;57850;52.922;6.256;2023-02-21T07:56:58;101997.66;;;12.64;nan
12468;BME280;57850;52.922;6.256;2023-02-21T07:59:24;101995.03;;;12.64;nan
12468;BME280;57850;52.922;6.256;2023-02-21T08:01:51;101998.63;;;12.60;nan
12468;BME280;57850;52.922;6.256;2023-02-21T08:04:17;102000.66;;;12.49;nan
12468;BME280;57850;52.922;6.256;2023-02-21T08:06:45;101986.41;;;12.91;nan
12468;BME280;57850;52.922;6.256;2023-02-21T08:09:13;101990.50;;;13.01;nan
12468;BME280;57850;52.922;6.256;2023-02-21T08:11:40;102009.69;;;12.71;nan
12468;BME280;57850;52.922;6.256;2023-02-21T08:14:08;102021.28;;;12.61;nan
12468;BME280;57850;52.922;6.256;2023-02-21T08:16:35;102009.28;;;12.86;nan
12468;BME280;57850;52.922;6.256;2023-02-21T08:19:01;102014.50;;;12.86;nan
12468;BME280;57850;52.922;6.256;2023-02-21T08:21:29;102013.97;;;12.73;nan
12468;BME280;57850;52.922;6.256;2023-02-21T08:23:56;102019.56;;;12.60;nan
12468;BME280;57850;52.922;6.256;2023-02-21T08:26:24;102017.78;;;12.62;nan
12468;BME280;57850;52.922;6.256;2023-02-21T08:28:50;102020.41;;;12.62;nan
12468;BME280;57850;52.922;6.256;2023-02-21T08:31:18;102012.50;;;12.96;nan
12468;BME280;57850;52.922;6.256;2023-02-21T08:33:45;102011.03;;;12.85;nan
12468;BME280;57850;52.922;6.256;2023-02-21T08:36:11;102003.50;;;13.06;nan
12468;BME280;57850;52.922;6.256;2023-02-21T08:38:38;102008.16;;;13.27;nan
12468;BME280;57850;52.922;6.256;2023-02-21T08:41:05;102016.63;;;13.04;nan
12468;BME280;57850;52.922;6.256;2023-02-21T08:43:32;102035.09;;;12.66;nan
12468;BME280;57850;52.922;6.256;2023-02-21T08:45:59;102008.63;;;13.10;nan
12468;BME280;57850;52.922;6.256;2023-02-21T08:48:28;102025.00;;;12.86;nan
12468;BME280;57850;52.922;6.256;2023-02-21T08:50:54;102018.59;;;12.96;nan
12468;BME280;57850;52.922;6.256;2023-02-21T08:53:21;102017.25;;;13.15;nan
12468;BME280;57850;52.922;6.256;2023-02-21T08:55:47;102022.44;;;12.83;nan
12468;BME280;57850;52.922;6.256;2023-02-21T08:58:14;102015.06;;;12.97;nan
12468;BME280;57850;52.922;6.256;2023-02-21T09:00:40;102007.47;;;13.20;nan
12468;BME280;57850;52.922;6.256;2023-02-21T09:03:07;102021.75;;;12.76;nan
12468;BME280;57850;52.922;6.256;2023-02-21T09:05:35;102000.34;;;12.93;nan
12468;BME280;57850;52.922;6.256;2023-02-21T09:08:02;102018.34;;;13.05;nan
12468;BME280;57850;52.922;6.256;2023-02-21T09:10:31;102014.91;;;13.03;nan
12468;BME280;57850;52.922;6.256;2023-02-21T09:12:58;102029.00;;;12.67;nan
12468;BME280;57850;52.922;6.256;2023-02-21T09:15:25;102011.25;;;13.10;nan
12468;BME280;57850;52.922;6.256;2023-02-21T09:17:52;102019.31;;;13.03;nan
12468;BME280;57850;52.922;6.256;2023-02-21T09:20:20;102020.31;;;12.97;nan
12468;BME280;57850;52.922;6.256;2023-02-21T09:22:49;102025.16;;;12.80;nan
12468;BME280;57850;52.922;6.256;2023-02-21T09:25:19;102018.44;;;13.02;nan
12468;BME280;57850;52.922;6.256;2023-02-21T09:27:47;102012.91;;;13.13;nan
12468;BME280;57850;52.922;6.256;2023-02-21T09:30:16;102006.16;;;13.35;nan
12468;BME280;57850;52.922;6.256;2023-02-21T09:32:43;102012.16;;;13.40;nan
12468;BME280;57850;52.922;6.256;2023-02-21T09:35:10;102014.69;;;13.43;nan
12468;BME280;57850;52.922;6.256;2023-02-21T09:37:39;102033.88;;;12.80;nan
12468;BME280;57850;52.922;6.256;2023-02-21T09:40:13;102003.72;;;13.29;nan
12468;BME280;57850;52.922;6.256;2023-02-21T09:42:40;102011.84;;;13.20;nan
12468;BME280;57850;52.922;6.256;2023-02-21T09:45:13;102016.72;;;13.01;nan
12468;BME280;57850;52.922;6.256;2023-02-21T09:47:41;102012.34;;;13.34;nan
12468;BME280;57850;52.922;6.256;2023-02-21T09:50:13;102019.94;;;13.12;nan
12468;BME280;57850;52.922;6.256;2023-02-21T09:52:41;102015.03;;;13.31;nan
12468;BME280;57850;52.922;6.256;2023-02-21T09:55:27;102022.16;;;13.26;nan
12468;BME280;57850;52.922;6.256;2023-02-21T09:57:55;102016.06;;;13.25;nan
12468;BME280;57850;52.922;6.256;2023-02-21T10:00:25;102023.47;;;13.10;nan
12468;BME280;57850;52.922;6.256;2023-02-21T10:02:58;102019.09;;;13.10;nan
12468;BME280;57850;52.922;6.256;2023-02-21T10:05:38;102030.41;;;12.78;nan
12468;BME280;57850;52.922;6.256;2023-02-21T10:08:13;102013.59;;;13.19;nan
12468;BME280;57850;52.922;6.256;2023-02-21T10:10:46;102025.16;;;13.43;nan
12468;BME280;57850;52.922;6.256;2023-02-21T10:13:22;102017.25;;;13.45;nan
12468;BME280;57850;52.922;6.256;2023-02-21T10:15:59;102036.38;;;13.17;nan
12468;BME280;57850;52.922;6.256;2023-02-21T10:18:34;102013.44;;;13.56;nan
12468;BME280;57850;52.922;6.256;2023-02-21T10:21:10;102017.06;;;13.51;nan
12468;BME280;57850;52.922;6.256;2023-02-21T10:23:40;102016.06;;;13.56;nan
12468;BME280;57850;52.922;6.256;2023-02-21T10:26:11;102011.22;;;13.70;nan
12468;BME280;57850;52.922;6.256;2023-02-21T10:28:39;102026.66;;;13.52;nan
12468;BME280;57850;52.922;6.256;2023-02-21T10:31:08;102023.53;;;13.68;nan
12468;BME280;57850;52.922;6.256;2023-02-21T10:33:38;102034.78;;;13.43;nan
12468;BME280;57850;52.922;6.256;2023-02-21T10:36:10;102029.47;;;13.46;nan
12468;BME280;57850;52.922;6.256;2023-02-21T10:38:40;102023.94;;;13.55;nan
12468;BME280;57850;52.922;6.256;2023-02-21T10:41:10;102027.38;;;13.86;nan
12468;BME280;57850;52.922;6.256;2023-02-21T10:43:40;102033.47;;;13.86;nan
12468;BME280;57850;52.922;6.256;2023-02-21T10:46:13;102029.16;;;13.56;nan
12468;BME280;57850;52.922;6.256;2023-02-21T10:48:43;102043.56;;;13.11;nan
12468;BME280;57850;52.922;6.256;2023-02-21T10:51:13;102013.53;;;13.53;nan
12468;BME280;57850;52.922;6.256;2023-02-21T10:53:41;102021.09;;;13.62;nan
12468;BME280;57850;52.922;6.256;2023-02-21T10:56:19;102025.59;;;13.59;nan
12468;BME280;57850;52.922;6.256;2023-02-21T10:58:49;102029.38;;;13.49;nan
12468;BME280;57850;52.922;6.256;2023-02-21T11:01:19;102038.28;;;13.43;nan
12468;BME280;57850;52.922;6.256;2023-02-21T11:03:49;102035.19;;;13.29;nan
12468;BME280;57850;52.922;6.256;2023-02-21T11:06:23;102019.84;;;13.15;nan
12468;BME280;57850;52.922;6.256;2023-02-21T11:08:50;102023.50;;;13.40;nan
12468;BME280;57850;52.922;6.256;2023-02-21T11:11:31;102021.31;;;13.55;nan
12468;BME280;57850;52.922;6.256;2023-02-21T11:14:20;102022.72;;;13.37;nan
12468;BME280;57850;52.922;6.256;2023-02-21T11:17:09;102015.78;;;13.65;nan
12468;BME280;57850;52.922;6.256;2023-02-21T11:19:49;102015.31;;;13.51;nan
12468;BME280;57850;52.922;6.256;2023-02-21T11:22:18;102021.31;;;13.55;nan
12468;BME280;57850;52.922;6.256;2023-02-21T11:24:49;102032.84;;;13.49;nan
12468;BME280;57850;52.922;6.256;2023-02-21T11:27:18;102031.88;;;13.53;nan
12468;BME280;57850;52.922;6.256;2023-02-21T11:29:47;102029.69;;;13.67;nan
12468;BME280;57850;52.922;6.256;2023-02-21T11:32:27;102027.63;;;13.48;nan
12468;BME280;57850;52.922;6.256;2023-02-21T11:35:05;102019.84;;;13.46;nan
12468;BME280;57850;52.922;6.256;2023-02-21T11:37:32;102023.66;;;13.64;nan
12468;BME280;57850;52.922;6.256;2023-02-21T11:39:59;102039.34;;;13.36;nan
12468;BME280;57850;52.922;6.256;2023-02-21T11:42:30;102004.66;;;13.85;nan
12468;BME280;57850;52.922;6.256;2023-02-21T11:45:18;102031.09;;;13.50;nan
12468;BME280;57850;52.922;6.256;2023-02-21T11:47:53;102034.19;;;13.33;nan
12468;BME280;57850;52.922;6.256;2023-02-21T11:50:24;102036.22;;;13.23;nan
12468;BME280;57850;52.922;6.256;2023-02-21T11:52:59;102031.09;;;13.50;nan
12468;BME280;57850;52.922;6.256;2023-02-21T11:55:27;102030.50;;;13.08;nan
12468;BME280;57850;52.922;6.256;2023-02-21T11:58:16;102034.75;;;13.13;nan
12468;BME280;57850;52.922;6.256;2023-02-21T12:00:49;102003.91;;;13.52;nan
12468;BME280;57850;52.922;6.256;2023-02-21T12:03:57;102007.13;;;13.32;nan
12468;BME280;57850;52.922;6.256;2023-02-21T12:06:31;102002.69;;;13.34;nan
12468;BME280;57850;52.922;6.256;2023-02-21T12:09:06;102000.22;;;13.30;nan
12468;BME280;57850;52.922;6.256;2023-02-21T12:11:42;101988.28;;;13.49;nan
12468;BME280;57850;52.922;6.256;2023-02-21T12:14:27;101996.75;;;13.57;nan
12468;BME280;57850;52.922;6.256;2023-02-21T12:17:13;101985.00;;;13.98;nan
12468;BME280;57850;52.922;6.256;2023-02-21T12:19:53;101987.91;;;13.89;nan
12468;BME280;57850;52.922;6.256;2023-02-21T12:22:34;101993.34;;;13.83;nan
12468;BME280;57850;52.922;6.256;2023-02-21T12:25:16;101998.00;;;13.46;nan
12468;BME280;57850;52.922;6.256;2023-02-21T12:27:51;101988.72;;;13.63;nan
12468;BME280;57850;52.922;6.256;2023-02-21T12:30:30;102000.38;;;13.24;nan
12468;BME280;57850;52.922;6.256;2023-02-21T12:33:12;101980.22;;;13.55;nan
12468;BME280;57850;52.922;6.256;2023-02-21T12:35:54;101983.53;;;13.32;nan
12468;BME280;57850;52.922;6.256;2023-02-21T12:38:34;101982.91;;;13.24;nan
12468;BME280;57850;52.922;6.256;2023-02-21T12:41:19;101987.09;;;12.99;nan
12468;BME280;57850;52.922;6.256;2023-02-21T12:43:53;101978.38;;;12.99;nan
12468;BME280;57850;52.922;6.256;2023-02-21T12:46:27;101954.16;;;13.21;nan
12468;BME280;57850;52.922;6.256;2023-02-21T12:49:02;101965.13;;;13.03;nan
12468;BME280;57850;52.922;6.256;2023-02-21T12:51:34;101944.03;;;13.09;nan
12468;BME280;57850;52.922;6.256;2023-02-21T12:54:05;101943.88;;;13.15;nan
12468;BME280;57850;52.922;6.256;2023-02-21T12:56:39;101947.03;;;12.94;nan
12468;BME280;57850;52.922;6.256;2023-02-21T12:59:12;101934.63;;;13.01;nan
12468;BME280;57850;52.922;6.256;2023-02-21T13:01:45;101929.81;;;13.18;nan
12468;BME280;57850;52.922;6.256;2023-02-21T13:04:21;101951.44;;;13.24;nan
12468;BME280;57850;52.922;6.256;2023-02-21T13:06:52;101950.31;;;13.02;nan
12468;BME280;57850;52.922;6.256;2023-02-21T13:09:27;101931.19;;;13.29;nan
12468;BME280;57850;52.922;6.256;2023-02-21T13:12:03;101938.25;;;13.27;nan
12468;BME280;57850;52.922;6.256;2023-02-21T13:14:36;101950.09;;;13.11;nan
12468;BME280;57850;52.922;6.256;2023-02-21T13:17:08;101937.75;;;13.15;nan
12468;BME280;57850;52.922;6.256;2023-02-21T13:19:43;101938.03;;;13.04;nan
12468;BME280;57850;52.922;6.256;2023-02-21T13:25:43;101935.66;;;13.26;nan
12468;BME280;57850;52.922;6.256;2023-02-21T13:28:16;101933.81;;;13.29;nan
12468;BME280;57850;52.922;6.256;2023-02-21T13:30:45;101938.00;;;13.06;nan
12468;BME280;57850;52.922;6.256;2023-02-21T13:33:27;101916.31;;;13.30;nan
12468;BME280;57850;52.922;6.256;2023-02-21T13:35:57;101930.31;;;13.30;nan
12468;BME280;57850;52.922;6.256;2023-02-21T13:38:26;101936.09;;;13.12;nan
12468;BME280;57850;52.922;6.256;2023-02-21T13:41:02;101924.56;;;13.18;nan
12468;BME280;57850;52.922;6.256;2023-02-21T13:43:33;101916.44;;;13.25;nan
12468;BME280;57850;52.922;6.256;2023-02-21T13:46:23;101916.72;;;13.16;nan
12468;BME280;57850;52.922;6.256;2023-02-21T13:51:51;101922.31;;;13.04;nan
12468;BME280;57850;52.922;6.256;2023-02-21T13:54:22;101903.88;;;13.07;nan